EBCIEBFS

Guest
Details From EBCI - Brussels South - Charleroi
To EBFS - Florennes
Flight Number -
Tags generated
Created
Modified
Stats Distance 15 nm / 28 km
Max Altitude 0 ft / 0 m
Waypoints 3
Social Downloads 2
Likes 0
Share VATSIM

Download

Looking for another format? Having issues loading an existing format? Contact us
Advertisement - Login to hide

Notes

Basic altitude profile: - Ascent Rate: 2500ft/min - Ascent Speed: 250kts - Cruise Altitude: 35000ft - Cruise Speed: 420kts - Descent Rate: 1500ft/min - Descent Speed: 250kts Options: - Use NATs: yes - Use PACOTS: yes - Use low airways: yes - Use high airways: yes

Route

EBCI BFS EBFS

ID Type Via Altitude Latitude Longitude Leg Dist Tot Dist Heading (true) Name
O EBCI APT - 0 ft / 0 m 50.45995˚ 4.45312˚ - 0 nm - Brussels South - Charleroi
BFS GS - 0 ft / 0 m 50.24139˚ 4.65306˚ 15 nm 15 nm 150° / 150° GS
O EBFS APT - 0 ft / 0 m 50.24086˚ 4.64829˚ 0 nm 15 nm 260° / 260° Florennes

Altitude Profile

Advertisement - Login to hide

EBCI

Details ICAO EBCI (CRL)
Name Brussels South - Charleroi
Region Belgium
Timezone Europe/Brussels (UTC+2.0)
Stats Elevation 614 ft / 187 m (AMSL)
Location 50.459947° 4.453125°
Runways 1
Magnetic Variation 1.194° E

METAR

EBCI 250850Z VRB02KT 9999 FEW020 21/15 Q1018 NOSIG

Decode

TAF

TAF EBCI 250520Z 2506/2612 VRB03KT 6000 NSC PROB30 TEMPO 2506/2507 4000 BR PROB30 TEMPO 2512/2520 VRB15G25KT 3000 SHRA TSRAGR PROB30 TEMPO 2602/2606 2500 BR

Decode

Departure Runways

ID Width Length Bearing (true) Bearing (mag) Surface Threshold Offset Overrun Length
07 148 ft / 45 m 8,374 ft / 2,552 m 65.53° 64.34° Asphalt 1,476 ft / 450 m 0 ft / 0 m
25 148 ft / 45 m 8,374 ft / 2,552 m 245.55° 244.36° Asphalt 0 ft / 0 m 0 ft / 0 m

EBFS

Details ICAO EBFS
Name Florennes
Region Belgium
Timezone Europe/Brussels (UTC+2.0)
Stats Elevation 900 ft / 274 m (AMSL)
Location 50.240864° 4.648295°
Runways 2
Magnetic Variation 1.264° E

METAR

EBFS 250855Z VRB01KT 9999 FEW024 20/15 Q1018 BLU BLU

Decode

TAF

Not found

Destination Runways

ID Width Length Bearing (true) Bearing (mag) Surface Threshold Offset Overrun Length
08L 148 ft / 45 m 11,215 ft / 3,418 m 79.47° 78.21° Asphalt 889 ft / 271 m 161 ft / 49 m
08R 75 ft / 23 m 7,337 ft / 2,236 m 79.44° 78.18° Asphalt 453 ft / 138 m 0 ft / 0 m
26L 75 ft / 23 m 7,337 ft / 2,236 m 259.46° 258.20° Asphalt 502 ft / 153 m 0 ft / 0 m
26R 148 ft / 45 m 11,215 ft / 3,418 m 259.51° 258.25° Asphalt 1,345 ft / 410 m 13 ft / 4 m

Approach Navaids

Runway Type Ident Frequency Range Bearing (true) Bearing (mag) Slope Elevation
26R Localiser BFS 108.35 MHz 18 nm / 33 km 259.49° 258.23° - 919 ft / 280 m (AMSL)
26R Glidescope BFS 108.35 MHz 10 nm / 19 km 259.49° 258.23° 2.75° 994 ft / 303 m (AMSL)